sensor_id;sensor_type;location;lat;lon;timestamp;pressure;altitude;pressure_sealevel;temperature;humidity
61488;BME280;47351;53.326;-6.298;2023-05-07T00:01:36;101019.50;;;14.31;73.52
61488;BME280;47351;53.326;-6.298;2023-05-07T00:04:26;101022.45;;;14.28;73.49
61488;BME280;47351;53.326;-6.298;2023-05-07T00:07:17;101024.73;;;14.25;73.67
61488;BME280;47351;53.326;-6.298;2023-05-07T00:10:09;101026.58;;;14.21;73.75
61488;BME280;47351;53.326;-6.298;2023-05-07T00:13:01;101022.27;;;14.18;73.90
61488;BME280;47351;53.326;-6.298;2023-05-07T00:15:54;101021.15;;;14.13;74.01
61488;BME280;47351;53.326;-6.298;2023-05-07T00:18:45;101021.84;;;14.09;74.16
61488;BME280;47351;53.326;-6.298;2023-05-07T00:21:36;101019.81;;;14.03;74.47
61488;BME280;47351;53.326;-6.298;2023-05-07T00:24:26;101021.08;;;13.98;74.66
61488;BME280;47351;53.326;-6.298;2023-05-07T00:27:17;101024.60;;;13.96;75.02
61488;BME280;47351;53.326;-6.298;2023-05-07T00:30:08;101031.68;;;13.95;75.32
61488;BME280;47351;53.326;-6.298;2023-05-07T00:32:59;101027.23;;;13.95;75.58
61488;BME280;47351;53.326;-6.298;2023-05-07T00:35:50;101026.41;;;13.94;75.80
61488;BME280;47351;53.326;-6.298;2023-05-07T00:38:40;101027.73;;;13.95;76.10
61488;BME280;47351;53.326;-6.298;2023-05-07T00:41:31;101032.14;;;13.96;76.18
61488;BME280;47351;53.326;-6.298;2023-05-07T00:44:21;101035.94;;;13.96;76.16
61488;BME280;47351;53.326;-6.298;2023-05-07T00:47:12;101037.13;;;13.95;76.38
61488;BME280;47351;53.326;-6.298;2023-05-07T00:50:05;101037.63;;;13.93;76.39
61488;BME280;47351;53.326;-6.298;2023-05-07T00:52:56;101038.92;;;13.91;76.48
61488;BME280;47351;53.326;-6.298;2023-05-07T00:55:49;101040.77;;;13.89;76.52
61488;BME280;47351;53.326;-6.298;2023-05-07T00:58:41;101046.39;;;13.87;76.48
61488;BME280;47351;53.326;-6.298;2023-05-07T01:01:32;101044.33;;;13.85;76.56
61488;BME280;47351;53.326;-6.298;2023-05-07T01:04:22;101046.11;;;13.85;76.59
61488;BME280;47351;53.326;-6.298;2023-05-07T01:07:15;101044.95;;;13.85;76.55
61488;BME280;47351;53.326;-6.298;2023-05-07T01:10:07;101047.31;;;13.87;76.48
61488;BME280;47351;53.326;-6.298;2023-05-07T01:12:59;101044.85;;;13.88;76.38
61488;BME280;47351;53.326;-6.298;2023-05-07T01:15:50;101040.31;;;13.90;76.38
61488;BME280;47351;53.326;-6.298;2023-05-07T01:18:40;101038.68;;;13.92;76.31
61488;BME280;47351;53.326;-6.298;2023-05-07T01:21:32;101040.77;;;13.94;76.06
61488;BME280;47351;53.326;-6.298;2023-05-07T01:24:24;101042.01;;;13.96;75.86
61488;BME280;47351;53.326;-6.298;2023-05-07T01:27:14;101048.56;;;13.98;75.97
61488;BME280;47351;53.326;-6.298;2023-05-07T01:30:06;101052.32;;;14.02;75.81
61488;BME280;47351;53.326;-6.298;2023-05-07T01:32:58;101054.73;;;14.02;75.64
61488;BME280;47351;53.326;-6.298;2023-05-07T01:35:51;101051.91;;;14.04;75.35
61488;BME280;47351;53.326;-6.298;2023-05-07T01:38:42;101045.26;;;14.04;75.20
61488;BME280;47351;53.326;-6.298;2023-05-07T01:41:33;101047.95;;;14.02;74.81
61488;BME280;47351;53.326;-6.298;2023-05-07T01:44:24;101052.36;;;14.00;74.40
61488;BME280;47351;53.326;-6.298;2023-05-07T01:47:15;101053.31;;;13.98;74.23
61488;BME280;47351;53.326;-6.298;2023-05-07T01:50:06;101053.42;;;13.95;74.12
61488;BME280;47351;53.326;-6.298;2023-05-07T01:52:59;101056.09;;;13.92;73.84
61488;BME280;47351;53.326;-6.298;2023-05-07T01:55:50;101056.55;;;13.87;73.62
61488;BME280;47351;53.326;-6.298;2023-05-07T01:58:42;101058.50;;;13.84;73.57
61488;BME280;47351;53.326;-6.298;2023-05-07T02:01:33;101060.48;;;13.81;73.49
61488;BME280;47351;53.326;-6.298;2023-05-07T02:04:24;101058.36;;;13.78;73.30
61488;BME280;47351;53.326;-6.298;2023-05-07T02:07:15;101063.91;;;13.75;73.31
61488;BME280;47351;53.326;-6.298;2023-05-07T02:10:06;101068.38;;;13.73;73.34
61488;BME280;47351;53.326;-6.298;2023-05-07T02:12:57;101068.18;;;13.72;73.29
61488;BME280;47351;53.326;-6.298;2023-05-07T02:15:51;101067.64;;;13.70;73.20
61488;BME280;47351;53.326;-6.298;2023-05-07T02:18:43;101067.89;;;13.68;73.02
61488;BME280;47351;53.326;-6.298;2023-05-07T02:21:34;101074.61;;;13.65;72.85
61488;BME280;47351;53.326;-6.298;2023-05-07T02:24:25;101075.59;;;13.65;72.99
61488;BME280;47351;53.326;-6.298;2023-05-07T02:27:15;101071.56;;;13.65;73.06
61488;BME280;47351;53.326;-6.298;2023-05-07T02:30:07;101068.32;;;13.67;73.12
61488;BME280;47351;53.326;-6.298;2023-05-07T02:32:58;101071.92;;;13.69;73.20
61488;BME280;47351;53.326;-6.298;2023-05-07T02:35:49;101073.84;;;13.69;73.33
61488;BME280;47351;53.326;-6.298;2023-05-07T02:38:41;101075.67;;;13.71;73.43
61488;BME280;47351;53.326;-6.298;2023-05-07T02:41:31;101069.83;;;13.72;73.70
61488;BME280;47351;53.326;-6.298;2023-05-07T02:44:22;101065.16;;;13.73;73.64
61488;BME280;47351;53.326;-6.298;2023-05-07T02:47:14;101061.31;;;13.74;73.59
61488;BME280;47351;53.326;-6.298;2023-05-07T02:50:06;101058.60;;;13.71;73.69
61488;BME280;47351;53.326;-6.298;2023-05-07T02:52:57;101060.21;;;13.66;73.73
61488;BME280;47351;53.326;-6.298;2023-05-07T02:55:48;101064.30;;;13.62;73.88
61488;BME280;47351;53.326;-6.298;2023-05-07T02:58:39;101067.45;;;13.56;73.95
61488;BME280;47351;53.326;-6.298;2023-05-07T03:01:31;101070.64;;;13.48;73.96
61488;BME280;47351;53.326;-6.298;2023-05-07T03:04:28;101069.40;;;13.39;73.99
61488;BME280;47351;53.326;-6.298;2023-05-07T03:07:19;101066.64;;;13.30;74.13
61488;BME280;47351;53.326;-6.298;2023-05-07T03:10:10;101066.35;;;13.23;74.38
61488;BME280;47351;53.326;-6.298;2023-05-07T03:13:01;101068.90;;;13.18;74.64
61488;BME280;47351;53.326;-6.298;2023-05-07T03:15:52;101077.25;;;13.12;74.73
61488;BME280;47351;53.326;-6.298;2023-05-07T03:18:43;101080.41;;;13.06;74.79
61488;BME280;47351;53.326;-6.298;2023-05-07T03:21:34;101080.90;;;13.01;75.05
61488;BME280;47351;53.326;-6.298;2023-05-07T03:24:24;101081.30;;;12.97;75.21
61488;BME280;47351;53.326;-6.298;2023-05-07T03:27:15;101087.89;;;12.92;75.29
61488;BME280;47351;53.326;-6.298;2023-05-07T03:30:07;101089.73;;;12.89;75.57
61488;BME280;47351;53.326;-6.298;2023-05-07T03:32:59;101089.63;;;12.86;75.74
61488;BME280;47351;53.326;-6.298;2023-05-07T03:35:52;101093.45;;;12.84;75.77
61488;BME280;47351;53.326;-6.298;2023-05-07T03:38:44;101093.30;;;12.82;75.81
61488;BME280;47351;53.326;-6.298;2023-05-07T03:41:36;101096.54;;;12.81;75.78
61488;BME280;47351;53.326;-6.298;2023-05-07T03:44:27;101098.13;;;12.79;75.73
61488;BME280;47351;53.326;-6.298;2023-05-07T03:47:18;101100.21;;;12.78;75.71
61488;BME280;47351;53.326;-6.298;2023-05-07T03:50:09;101103.27;;;12.76;75.58
61488;BME280;47351;53.326;-6.298;2023-05-07T03:53:01;101105.98;;;12.74;75.62
61488;BME280;47351;53.326;-6.298;2023-05-07T03:55:52;101107.45;;;12.74;75.55
61488;BME280;47351;53.326;-6.298;2023-05-07T03:58:43;101108.14;;;12.74;75.54
61488;BME280;47351;53.326;-6.298;2023-05-07T04:01:34;101108.75;;;12.77;75.58
61488;BME280;47351;53.326;-6.298;2023-05-07T04:04:25;101109.50;;;12.80;75.47
61488;BME280;47351;53.326;-6.298;2023-05-07T04:07:17;101109.07;;;12.84;75.38
61488;BME280;47351;53.326;-6.298;2023-05-07T04:10:10;101107.54;;;12.90;75.03
61488;BME280;47351;53.326;-6.298;2023-05-07T04:13:03;101104.60;;;12.95;75.10
61488;BME280;47351;53.326;-6.298;2023-05-07T04:15:54;101098.86;;;13.03;74.96
61488;BME280;47351;53.326;-6.298;2023-05-07T04:18:45;101100.73;;;13.08;74.24
61488;BME280;47351;53.326;-6.298;2023-05-07T04:21:36;101106.79;;;13.12;73.86
61488;BME280;47351;53.326;-6.298;2023-05-07T04:24:27;101112.77;;;13.15;73.51
61488;BME280;47351;53.326;-6.298;2023-05-07T04:27:23;101115.32;;;13.14;73.11
61488;BME280;47351;53.326;-6.298;2023-05-07T04:30:15;101115.92;;;13.14;72.87
61488;BME280;47351;53.326;-6.298;2023-05-07T04:33:06;101116.57;;;13.13;72.70
61488;BME280;47351;53.326;-6.298;2023-05-07T04:35:58;101119.15;;;13.14;72.70
61488;BME280;47351;53.326;-6.298;2023-05-07T04:38:59;101120.03;;;13.15;72.88
61488;BME280;47351;53.326;-6.298;2023-05-07T04:41:49;101118.48;;;13.16;72.89
61488;BME280;47351;53.326;-6.298;2023-05-07T04:44:40;101121.04;;;13.14;72.66
61488;BME280;47351;53.326;-6.298;2023-05-07T04:47:31;101123.86;;;13.13;72.47
61488;BME280;47351;53.326;-6.298;2023-05-07T04:50:22;101123.92;;;13.11;72.21
61488;BME280;47351;53.326;-6.298;2023-05-07T04:53:16;101128.55;;;13.08;72.04
61488;BME280;47351;53.326;-6.298;2023-05-07T04:56:07;101126.39;;;13.05;72.15
61488;BME280;47351;53.326;-6.298;2023-05-07T04:59:03;101118.80;;;13.04;72.12
61488;BME280;47351;53.326;-6.298;2023-05-07T05:01:54;101123.17;;;13.03;72.20
61488;BME280;47351;53.326;-6.298;2023-05-07T05:04:45;101126.52;;;13.02;71.89
61488;BME280;47351;53.326;-6.298;2023-05-07T05:07:36;101127.65;;;12.99;71.67
61488;BME280;47351;53.326;-6.298;2023-05-07T05:10:27;101129.13;;;12.97;71.55
61488;BME280;47351;53.326;-6.298;2023-05-07T05:13:19;101128.08;;;12.95;71.28
61488;BME280;47351;53.326;-6.298;2023-05-07T05:16:10;101129.11;;;12.92;71.13
61488;BME280;47351;53.326;-6.298;2023-05-07T05:19:01;101134.39;;;12.90;70.96
61488;BME280;47351;53.326;-6.298;2023-05-07T05:21:53;101135.38;;;12.89;70.73
61488;BME280;47351;53.326;-6.298;2023-05-07T05:24:44;101135.21;;;12.89;70.82
61488;BME280;47351;53.326;-6.298;2023-05-07T05:27:35;101132.30;;;12.89;70.80
61488;BME280;47351;53.326;-6.298;2023-05-07T05:30:26;101134.81;;;12.91;70.94
61488;BME280;47351;53.326;-6.298;2023-05-07T05:33:16;101138.35;;;12.93;71.06
61488;BME280;47351;53.326;-6.298;2023-05-07T05:36:08;101141.52;;;12.97;71.13
61488;BME280;47351;53.326;-6.298;2023-05-07T05:39:00;101139.84;;;13.01;71.14
61488;BME280;47351;53.326;-6.298;2023-05-07T05:41:50;101136.73;;;13.04;70.82
61488;BME280;47351;53.326;-6.298;2023-05-07T05:44:42;101137.45;;;13.07;70.72
61488;BME280;47351;53.326;-6.298;2023-05-07T05:47:33;101134.95;;;13.08;70.67
61488;BME280;47351;53.326;-6.298;2023-05-07T05:50:24;101141.39;;;13.08;70.80
61488;BME280;47351;53.326;-6.298;2023-05-07T05:53:15;101138.60;;;13.08;70.75
61488;BME280;47351;53.326;-6.298;2023-05-07T05:56:06;101143.40;;;13.08;70.76
61488;BME280;47351;53.326;-6.298;2023-05-07T05:58:58;101143.30;;;13.09;70.75
61488;BME280;47351;53.326;-6.298;2023-05-07T06:01:49;101143.23;;;13.11;70.88
61488;BME280;47351;53.326;-6.298;2023-05-07T06:04:40;101141.02;;;13.15;70.76
61488;BME280;47351;53.326;-6.298;2023-05-07T06:07:32;101144.20;;;13.20;70.91
61488;BME280;47351;53.326;-6.298;2023-05-07T06:10:23;101143.70;;;13.27;71.13
61488;BME280;47351;53.326;-6.298;2023-05-07T06:13:15;101150.59;;;13.36;71.00
61488;BME280;47351;53.326;-6.298;2023-05-07T06:16:06;101152.06;;;13.50;70.71
61488;BME280;47351;53.326;-6.298;2023-05-07T06:18:57;101152.94;;;13.63;70.64
61488;BME280;47351;53.326;-6.298;2023-05-07T06:21:48;101153.52;;;13.79;70.39
61488;BME280;47351;53.326;-6.298;2023-05-07T06:24:38;101155.43;;;13.97;70.12
61488;BME280;47351;53.326;-6.298;2023-05-07T06:27:29;101160.36;;;14.14;69.96
61488;BME280;47351;53.326;-6.298;2023-05-07T06:30:20;101164.73;;;14.33;69.64
61488;BME280;47351;53.326;-6.298;2023-05-07T06:33:11;101167.67;;;14.50;69.08
61488;BME280;47351;53.326;-6.298;2023-05-07T06:36:03;101173.72;;;14.61;68.34
61488;BME280;47351;53.326;-6.298;2023-05-07T06:38:54;101175.58;;;14.69;67.73
61488;BME280;47351;53.326;-6.298;2023-05-07T06:41:45;101173.65;;;14.80;67.69
61488;BME280;47351;53.326;-6.298;2023-05-07T06:44:44;101176.42;;;14.95;67.42
61488;BME280;47351;53.326;-6.298;2023-05-07T06:47:37;101184.15;;;15.19;66.78
61488;BME280;47351;53.326;-6.298;2023-05-07T06:50:28;101189.83;;;15.52;66.45
61488;BME280;47351;53.326;-6.298;2023-05-07T06:53:19;101190.60;;;15.84;65.87
61488;BME280;47351;53.326;-6.298;2023-05-07T06:56:10;101190.65;;;16.11;65.32
61488;BME280;47351;53.326;-6.298;2023-05-07T06:59:01;101197.48;;;16.35;64.90
61488;BME280;47351;53.326;-6.298;2023-05-07T07:01:56;101192.23;;;16.62;64.49
61488;BME280;47351;53.326;-6.298;2023-05-07T07:04:47;101196.12;;;16.81;64.17
61488;BME280;47351;53.326;-6.298;2023-05-07T07:07:37;101197.25;;;16.89;63.23
61488;BME280;47351;53.326;-6.298;2023-05-07T07:10:28;101200.63;;;16.93;63.19
61488;BME280;47351;53.326;-6.298;2023-05-07T07:13:19;101206.35;;;16.95;63.16
61488;BME280;47351;53.326;-6.298;2023-05-07T07:16:10;101210.17;;;16.88;62.79
61488;BME280;47351;53.326;-6.298;2023-05-07T07:19:01;101213.23;;;16.78;62.70
61488;BME280;47351;53.326;-6.298;2023-05-07T07:21:51;101210.84;;;16.66;62.72
61488;BME280;47351;53.326;-6.298;2023-05-07T07:24:42;101213.69;;;16.56;62.71
61488;BME280;47351;53.326;-6.298;2023-05-07T07:27:35;101207.78;;;16.54;62.71
61488;BME280;47351;53.326;-6.298;2023-05-07T07:30:26;101206.95;;;16.60;62.33
61488;BME280;47351;53.326;-6.298;2023-05-07T07:33:17;101208.84;;;16.73;61.86
61488;BME280;47351;53.326;-6.298;2023-05-07T07:36:09;101209.22;;;17.02;61.71
61488;BME280;47351;53.326;-6.298;2023-05-07T07:39:00;101211.24;;;17.34;61.22
61488;BME280;47351;53.326;-6.298;2023-05-07T07:41:51;101209.18;;;17.42;60.41
61488;BME280;47351;53.326;-6.298;2023-05-07T07:44:42;101209.66;;;17.48;60.31
61488;BME280;47351;53.326;-6.298;2023-05-07T07:47:34;101208.50;;;17.60;60.17
61488;BME280;47351;53.326;-6.298;2023-05-07T07:50:24;101210.53;;;17.74;59.95
61488;BME280;47351;53.326;-6.298;2023-05-07T07:53:33;101211.32;;;17.88;59.55
61488;BME280;47351;53.326;-6.298;2023-05-07T07:56:25;101215.84;;;18.19;58.76
61488;BME280;47351;53.326;-6.298;2023-05-07T07:59:15;101209.98;;;18.52;58.28
61488;BME280;47351;53.326;-6.298;2023-05-07T08:02:08;101206.90;;;18.90;57.74
61488;BME280;47351;53.326;-6.298;2023-05-07T08:04:59;101207.26;;;19.18;57.05
61488;BME280;47351;53.326;-6.298;2023-05-07T08:07:50;101206.08;;;19.43;56.32
61488;BME280;47351;53.326;-6.298;2023-05-07T08:10:46;101207.78;;;19.95;55.22
61488;BME280;47351;53.326;-6.298;2023-05-07T08:13:46;101204.98;;;20.14;54.94
61488;BME280;47351;53.326;-6.298;2023-05-07T08:16:37;101198.09;;;20.51;54.41
61488;BME280;47351;53.326;-6.298;2023-05-07T08:19:29;101193.84;;;21.19;53.40
61488;BME280;47351;53.326;-6.298;2023-05-07T08:22:19;101192.87;;;21.97;52.28
61488;BME280;47351;53.326;-6.298;2023-05-07T08:25:12;101190.42;;;22.76;51.06
61488;BME280;47351;53.326;-6.298;2023-05-07T08:28:03;101183.81;;;23.55;49.93
61488;BME280;47351;53.326;-6.298;2023-05-07T08:30:55;101186.25;;;24.10;48.72
61488;BME280;47351;53.326;-6.298;2023-05-07T08:33:51;101188.34;;;24.68;47.67
61488;BME280;47351;53.326;-6.298;2023-05-07T08:36:41;101187.55;;;25.41;46.35
61488;BME280;47351;53.326;-6.298;2023-05-07T08:39:32;101185.67;;;26.40;44.88
61488;BME280;47351;53.326;-6.298;2023-05-07T08:42:24;101185.91;;;27.59;43.28
61488;BME280;47351;53.326;-6.298;2023-05-07T08:45:15;101190.01;;;28.59;41.62
61488;BME280;47351;53.326;-6.298;2023-05-07T08:48:14;101191.52;;;29.59;39.81
61488;BME280;47351;53.326;-6.298;2023-05-07T08:51:08;101185.94;;;29.92;38.56
61488;BME280;47351;53.326;-6.298;2023-05-07T08:53:59;101190.60;;;28.99;38.72
61488;BME280;47351;53.326;-6.298;2023-05-07T08:56:53;101193.61;;;28.49;38.39
61488;BME280;47351;53.326;-6.298;2023-05-07T08:59:44;101200.88;;;28.13;38.98
61488;BME280;47351;53.326;-6.298;2023-05-07T09:02:36;101197.98;;;28.76;38.83
61488;BME280;47351;53.326;-6.298;2023-05-07T09:05:27;101194.69;;;28.72;38.77
61488;BME280;47351;53.326;-6.298;2023-05-07T09:08:18;101193.80;;;28.65;38.36
61488;BME280;47351;53.326;-6.298;2023-05-07T09:11:09;101196.60;;;28.80;38.01
61488;BME280;47351;53.326;-6.298;2023-05-07T09:14:02;101197.23;;;27.89;38.93
61488;BME280;47351;53.326;-6.298;2023-05-07T09:16:57;101203.60;;;26.79;39.73
61488;BME280;47351;53.326;-6.298;2023-05-07T09:19:49;101206.79;;;25.94;40.68
61488;BME280;47351;53.326;-6.298;2023-05-07T09:22:39;101202.65;;;25.68;41.39
61488;BME280;47351;53.326;-6.298;2023-05-07T09:25:33;101202.35;;;26.20;40.57
61488;BME280;47351;53.326;-6.298;2023-05-07T09:28:28;101202.23;;;25.89;41.51
61488;BME280;47351;53.326;-6.298;2023-05-07T09:31:20;101207.21;;;25.77;41.73
61488;BME280;47351;53.326;-6.298;2023-05-07T09:34:14;101207.83;;;25.18;42.10
61488;BME280;47351;53.326;-6.298;2023-05-07T09:37:06;101208.96;;;24.61;42.62
61488;BME280;47351;53.326;-6.298;2023-05-07T09:39:57;101206.42;;;25.29;41.85
61488;BME280;47351;53.326;-6.298;2023-05-07T09:42:48;101205.85;;;24.97;41.45
61488;BME280;47351;53.326;-6.298;2023-05-07T09:45:40;101212.16;;;24.24;42.19
61488;BME280;47351;53.326;-6.298;2023-05-07T09:48:32;101217.96;;;23.51;43.02
61488;BME280;47351;53.326;-6.298;2023-05-07T09:51:29;101217.32;;;22.91;44.21
61488;BME280;47351;53.326;-6.298;2023-05-07T09:54:20;101212.59;;;22.44;44.31
61488;BME280;47351;53.326;-6.298;2023-05-07T09:57:12;101211.73;;;22.00;44.84
61488;BME280;47351;53.326;-6.298;2023-05-07T10:00:05;101211.38;;;21.56;45.56
61488;BME280;47351;53.326;-6.298;2023-05-07T10:03:09;101209.91;;;22.42;45.29
61488;BME280;47351;53.326;-6.298;2023-05-07T10:06:14;101205.06;;;23.60;44.61
61488;BME280;47351;53.326;-6.298;2023-05-07T10:09:05;101198.52;;;24.24;43.30
61488;BME280;47351;53.326;-6.298;2023-05-07T10:11:56;101193.33;;;24.10;43.40
61488;BME280;47351;53.326;-6.298;2023-05-07T10:14:47;101185.27;;;24.40;43.20
61488;BME280;47351;53.326;-6.298;2023-05-07T10:17:39;101172.34;;;26.66;40.64
61488;BME280;47351;53.326;-6.298;2023-05-07T10:20:31;101159.11;;;28.89;37.57
61488;BME280;47351;53.326;-6.298;2023-05-07T10:23:23;101161.12;;;30.14;35.56
61488;BME280;47351;53.326;-6.298;2023-05-07T10:26:17;101161.14;;;30.48;33.48
61488;BME280;47351;53.326;-6.298;2023-05-07T10:29:10;101161.38;;;31.50;32.97
61488;BME280;47351;53.326;-6.298;2023-05-07T10:32:09;101161.30;;;32.51;31.39
61488;BME280;47351;53.326;-6.298;2023-05-07T10:35:03;101165.33;;;33.17;30.10
61488;BME280;47351;53.326;-6.298;2023-05-07T10:37:55;101167.57;;;33.51;29.42
61488;BME280;47351;53.326;-6.298;2023-05-07T10:40:47;101171.67;;;33.96;29.60
61488;BME280;47351;53.326;-6.298;2023-05-07T10:43:41;101175.86;;;34.79;28.75
61488;BME280;47351;53.326;-6.298;2023-05-07T10:46:39;101175.55;;;35.81;28.05
61488;BME280;47351;53.326;-6.298;2023-05-07T11:02:16;101162.34;;;34.72;25.25
61488;BME280;47351;53.326;-6.298;2023-05-07T11:05:22;101158.95;;;33.71;26.44
61488;BME280;47351;53.326;-6.298;2023-05-07T11:08:23;101164.45;;;31.74;28.46
61488;BME280;47351;53.326;-6.298;2023-05-07T11:11:18;101167.41;;;30.76;28.93
61488;BME280;47351;53.326;-6.298;2023-05-07T11:14:13;101168.19;;;30.86;29.36
61488;BME280;47351;53.326;-6.298;2023-05-07T11:17:10;101168.44;;;31.85;28.99
61488;BME280;47351;53.326;-6.298;2023-05-07T11:20:03;101164.94;;;32.01;28.93
61488;BME280;47351;53.326;-6.298;2023-05-07T11:23:01;101162.92;;;33.18;28.00
61488;BME280;47351;53.326;-6.298;2023-05-07T11:25:59;101158.71;;;34.10;26.61
61488;BME280;47351;53.326;-6.298;2023-05-07T11:28:50;101157.55;;;34.79;25.96
61488;BME280;47351;53.326;-6.298;2023-05-07T11:31:42;101162.36;;;34.77;25.82
61488;BME280;47351;53.326;-6.298;2023-05-07T11:34:34;101167.21;;;33.50;26.89
61488;BME280;47351;53.326;-6.298;2023-05-07T11:37:25;101158.27;;;34.03;26.54
61488;BME280;47351;53.326;-6.298;2023-05-07T11:40:25;101160.43;;;34.88;25.75
61488;BME280;47351;53.326;-6.298;2023-05-07T11:43:15;101164.86;;;35.61;25.32
61488;BME280;47351;53.326;-6.298;2023-05-07T11:46:07;101164.52;;;35.80;25.30
61488;BME280;47351;53.326;-6.298;2023-05-07T11:48:58;101166.67;;;35.72;25.24
61488;BME280;47351;53.326;-6.298;2023-05-07T11:51:48;101168.87;;;35.79;24.96
61488;BME280;47351;53.326;-6.298;2023-05-07T11:54:39;101173.21;;;33.73;26.18
61488;BME280;47351;53.326;-6.298;2023-05-07T11:57:29;101178.73;;;31.54;28.59
61488;BME280;47351;53.326;-6.298;2023-05-07T12:00:20;101174.81;;;30.19;30.14
61488;BME280;47351;53.326;-6.298;2023-05-07T12:03:10;101171.29;;;30.25;30.21
61488;BME280;47351;53.326;-6.298;2023-05-07T12:06:01;101175.65;;;29.31;31.22
61488;BME280;47351;53.326;-6.298;2023-05-07T12:08:52;101181.48;;;28.58;32.13
61488;BME280;47351;53.326;-6.298;2023-05-07T12:11:43;101186.01;;;28.53;32.57
61488;BME280;47351;53.326;-6.298;2023-05-07T12:14:39;101184.42;;;29.49;32.32
61488;BME280;47351;53.326;-6.298;2023-05-07T12:17:30;101183.70;;;28.97;32.32
61488;BME280;47351;53.326;-6.298;2023-05-07T12:20:20;101170.91;;;28.28;33.36
61488;BME280;47351;53.326;-6.298;2023-05-07T12:23:11;101163.17;;;27.59;34.05
61488;BME280;47351;53.326;-6.298;2023-05-07T12:26:01;101173.71;;;26.91;34.27
61488;BME280;47351;53.326;-6.298;2023-05-07T12:28:55;101179.67;;;26.30;34.57
61488;BME280;47351;53.326;-6.298;2023-05-07T12:31:47;101177.86;;;26.02;34.60
61488;BME280;47351;53.326;-6.298;2023-05-07T12:34:38;101174.78;;;26.70;33.99
61488;BME280;47351;53.326;-6.298;2023-05-07T12:37:33;101166.45;;;28.58;32.38
61488;BME280;47351;53.326;-6.298;2023-05-07T12:40:33;101161.63;;;29.82;30.98
61488;BME280;47351;53.326;-6.298;2023-05-07T12:43:26;101161.63;;;31.24;29.60
61488;BME280;47351;53.326;-6.298;2023-05-07T12:46:16;101151.70;;;32.30;28.33
61488;BME280;47351;53.326;-6.298;2023-05-07T12:49:07;101149.59;;;32.94;27.34
61488;BME280;47351;53.326;-6.298;2023-05-07T12:51:58;101139.50;;;33.77;26.42
61488;BME280;47351;53.326;-6.298;2023-05-07T12:54:48;101138.32;;;34.10;25.58
61488;BME280;47351;53.326;-6.298;2023-05-07T12:57:39;101133.79;;;34.27;24.89
61488;BME280;47351;53.326;-6.298;2023-05-07T13:00:35;101134.73;;;34.24;25.09
61488;BME280;47351;53.326;-6.298;2023-05-07T13:03:26;101137.95;;;34.18;24.85
61488;BME280;47351;53.326;-6.298;2023-05-07T13:06:17;101146.88;;;34.10;25.12
61488;BME280;47351;53.326;-6.298;2023-05-07T13:09:08;101153.35;;;33.83;24.96
61488;BME280;47351;53.326;-6.298;2023-05-07T13:11:58;101153.92;;;33.37;25.79
61488;BME280;47351;53.326;-6.298;2023-05-07T13:14:50;101161.30;;;31.84;26.98
61488;BME280;47351;53.326;-6.298;2023-05-07T13:17:41;101171.89;;;30.34;28.10
61488;BME280;47351;53.326;-6.298;2023-05-07T13:20:31;101173.21;;;29.68;28.98
61488;BME280;47351;53.326;-6.298;2023-05-07T13:23:22;101178.33;;;29.52;29.45
61488;BME280;47351;53.326;-6.298;2023-05-07T13:26:12;101175.30;;;28.80;30.04
61488;BME280;47351;53.326;-6.298;2023-05-07T13:29:14;101180.98;;;27.97;30.51
61488;BME280;47351;53.326;-6.298;2023-05-07T13:32:05;101183.15;;;27.15;31.43
61488;BME280;47351;53.326;-6.298;2023-05-07T13:34:55;101189.24;;;26.50;32.39
61488;BME280;47351;53.326;-6.298;2023-05-07T13:37:46;101197.38;;;26.10;32.84
61488;BME280;47351;53.326;-6.298;2023-05-07T13:40:37;101201.34;;;25.80;33.36
61488;BME280;47351;53.326;-6.298;2023-05-07T13:43:27;101197.16;;;25.56;33.59
61488;BME280;47351;53.326;-6.298;2023-05-07T13:46:17;101195.45;;;25.55;33.67
61488;BME280;47351;53.326;-6.298;2023-05-07T13:49:08;101195.88;;;25.75;33.85
61488;BME280;47351;53.326;-6.298;2023-05-07T13:51:59;101204.02;;;26.01;33.52
61488;BME280;47351;53.326;-6.298;2023-05-07T13:54:50;101199.86;;;26.08;33.23
61488;BME280;47351;53.326;-6.298;2023-05-07T13:57:41;101190.08;;;26.21;33.71
61488;BME280;47351;53.326;-6.298;2023-05-07T14:00:32;101187.89;;;26.73;33.53
61488;BME280;47351;53.326;-6.298;2023-05-07T14:03:22;101180.36;;;26.98;33.47
61488;BME280;47351;53.326;-6.298;2023-05-07T14:06:13;101182.86;;;26.71;33.23
61488;BME280;47351;53.326;-6.298;2023-05-07T14:09:04;101177.76;;;26.58;33.38
61488;BME280;47351;53.326;-6.298;2023-05-07T14:11:54;101177.14;;;26.96;33.09
61488;BME280;47351;53.326;-6.298;2023-05-07T14:14:45;101174.73;;;27.22;32.36
61488;BME280;47351;53.326;-6.298;2023-05-07T14:17:35;101167.94;;;27.35;32.04
61488;BME280;47351;53.326;-6.298;2023-05-07T14:20:26;101156.59;;;27.61;32.00
61488;BME280;47351;53.326;-6.298;2023-05-07T14:23:16;101153.75;;;27.74;32.15
61488;BME280;47351;53.326;-6.298;2023-05-07T14:26:26;101159.73;;;27.67;31.82
61488;BME280;47351;53.326;-6.298;2023-05-07T14:29:24;101158.04;;;27.30;32.02
61488;BME280;47351;53.326;-6.298;2023-05-07T14:32:15;101160.17;;;26.75;32.32
61488;BME280;47351;53.326;-6.298;2023-05-07T14:35:06;101158.72;;;26.14;32.31
61488;BME280;47351;53.326;-6.298;2023-05-07T14:37:56;101159.73;;;25.60;33.12
61488;BME280;47351;53.326;-6.298;2023-05-07T14:40:47;101161.27;;;25.32;33.65
61488;BME280;47351;53.326;-6.298;2023-05-07T14:43:37;101154.06;;;25.01;33.78
61488;BME280;47351;53.326;-6.298;2023-05-07T14:46:28;101147.45;;;24.71;34.35
61488;BME280;47351;53.326;-6.298;2023-05-07T14:49:18;101151.42;;;24.41;35.02
61488;BME280;47351;53.326;-6.298;2023-05-07T14:52:09;101151.35;;;24.14;35.31
61488;BME280;47351;53.326;-6.298;2023-05-07T14:54:59;101149.85;;;23.91;35.67
61488;BME280;47351;53.326;-6.298;2023-05-07T14:57:51;101147.77;;;23.63;36.43
61488;BME280;47351;53.326;-6.298;2023-05-07T15:00:42;101145.88;;;23.55;36.73